createdAt,value
2019-05-19T00:00:15.519Z,15.88
2019-05-19T00:02:44.160Z,15.83
2019-05-19T00:05:13.009Z,15.82
2019-05-19T00:07:41.707Z,15.82
2019-05-19T00:10:10.401Z,15.79
2019-05-19T00:12:39.013Z,15.78
2019-05-19T00:15:07.726Z,15.82
2019-05-19T00:17:36.244Z,15.87
2019-05-19T00:20:07.134Z,16.04
2019-05-19T00:22:35.728Z,15.99
2019-05-19T00:25:06.085Z,15.89
2019-05-19T00:27:35.284Z,15.83
2019-05-19T00:30:05.486Z,15.84
2019-05-19T00:32:34.033Z,15.73
2019-05-19T00:35:02.652Z,15.68
2019-05-19T00:37:31.105Z,15.61
2019-05-19T00:39:59.727Z,15.53
2019-05-19T00:42:28.242Z,15.53
2019-05-19T00:44:56.993Z,15.52
2019-05-19T00:47:25.581Z,15.42
2019-05-19T00:49:54.212Z,15.40
2019-05-19T00:52:22.808Z,15.38
2019-05-19T00:54:51.463Z,15.37
2019-05-19T00:57:20.474Z,15.32
2019-05-19T00:59:49.788Z,15.29
2019-05-19T01:02:18.353Z,15.24
2019-05-19T01:04:46.887Z,15.21
2019-05-19T01:07:15.478Z,15.17
2019-05-19T01:09:44.035Z,15.14
2019-05-19T01:12:12.567Z,15.14
2019-05-19T01:14:41.199Z,15.12
2019-05-19T01:17:09.809Z,15.12
2019-05-19T01:19:38.350Z,15.11
2019-05-19T01:22:08.270Z,15.13
2019-05-19T01:24:36.798Z,15.07
2019-05-19T01:27:05.929Z,15.01
2019-05-19T01:29:34.406Z,15.01
2019-05-19T01:32:03.024Z,14.99
2019-05-19T01:34:31.663Z,14.97
2019-05-19T01:37:00.209Z,14.95
2019-05-19T01:39:28.875Z,14.98
2019-05-19T01:41:57.515Z,15.02
2019-05-19T01:44:26.069Z,15.01
2019-05-19T01:46:54.702Z,15.00
2019-05-19T01:49:23.245Z,14.97
2019-05-19T01:51:51.874Z,14.94
2019-05-19T01:54:20.492Z,14.87
2019-05-19T01:56:49.134Z,14.84
2019-05-19T01:59:17.833Z,14.82
2019-05-19T02:01:46.326Z,14.78
2019-05-19T02:04:14.855Z,14.78
2019-05-19T02:06:43.489Z,14.78
2019-05-19T02:09:12.072Z,14.78
2019-05-19T02:11:40.638Z,14.76
2019-05-19T02:14:09.218Z,14.74
2019-05-19T02:16:37.770Z,14.70
2019-05-19T02:19:06.600Z,14.67
2019-05-19T02:21:35.141Z,14.66
2019-05-19T02:24:03.742Z,14.64
2019-05-19T02:26:32.242Z,14.58
2019-05-19T02:29:00.826Z,14.66
2019-05-19T02:31:29.342Z,14.70
2019-05-19T02:33:57.990Z,14.73
2019-05-19T02:36:26.541Z,14.64
2019-05-19T02:38:55.173Z,14.65
2019-05-19T02:41:26.861Z,14.66
2019-05-19T02:43:56.550Z,14.63
2019-05-19T02:46:27.386Z,14.62
2019-05-19T02:48:56.734Z,14.62
2019-05-19T02:51:28.221Z,14.62
2019-05-19T02:53:58.609Z,14.64
2019-05-19T02:56:29.116Z,14.59
2019-05-19T02:58:58.623Z,14.57
2019-05-19T03:01:27.106Z,14.59
2019-05-19T03:03:55.637Z,14.53
2019-05-19T03:06:24.183Z,14.44
2019-05-19T03:08:52.811Z,14.38
2019-05-19T03:11:21.283Z,14.38
2019-05-19T03:13:49.852Z,14.33
2019-05-19T03:16:18.468Z,14.36
2019-05-19T03:18:47.125Z,14.38
2019-05-19T03:21:15.639Z,14.32
2019-05-19T03:23:44.262Z,14.36
2019-05-19T03:26:12.880Z,14.38
2019-05-19T03:28:41.404Z,14.31
2019-05-19T03:31:26.782Z,14.30
2019-05-19T03:33:57.027Z,14.25
2019-05-19T03:36:25.565Z,14.23
2019-05-19T03:38:54.100Z,14.25
2019-05-19T03:41:22.664Z,14.26
2019-05-19T03:43:51.201Z,14.29
2019-05-19T03:46:19.901Z,14.26
2019-05-19T03:48:48.523Z,14.20
2019-05-19T03:51:30.409Z,14.17
2019-05-19T03:53:47.280Z,14.08
2019-05-19T03:56:15.934Z,14.12
2019-05-19T03:58:44.382Z,14.12
2019-05-19T04:01:12.953Z,14.14
2019-05-19T04:03:41.521Z,14.18
2019-05-19T04:06:10.237Z,14.25
2019-05-19T04:08:38.784Z,14.22
2019-05-19T04:11:07.892Z,14.24
2019-05-19T04:13:36.414Z,14.28
2019-05-19T04:16:05.009Z,14.30
2019-05-19T04:18:33.531Z,14.36
2019-05-19T04:21:02.063Z,14.39
2019-05-19T04:23:30.608Z,14.48
2019-05-19T04:25:59.133Z,14.56
2019-05-19T04:28:27.691Z,14.63
2019-05-19T04:30:56.327Z,14.73
2019-05-19T04:33:24.833Z,14.81
2019-05-19T04:35:57.278Z,14.89
2019-05-19T04:38:23.915Z,14.96
2019-05-19T04:40:52.556Z,14.99
2019-05-19T04:43:21.153Z,15.05
2019-05-19T04:45:49.726Z,15.13
2019-05-19T04:48:18.378Z,15.22
2019-05-19T04:50:46.947Z,15.28
2019-05-19T04:53:15.496Z,15.34
2019-05-19T04:55:44.073Z,15.39
2019-05-19T04:58:12.688Z,15.41
2019-05-19T05:00:41.269Z,15.43
2019-05-19T05:03:09.919Z,15.49
2019-05-19T05:05:38.528Z,15.52
2019-05-19T05:08:07.117Z,15.58
2019-05-19T05:10:35.607Z,15.62
2019-05-19T05:13:04.202Z,15.67
2019-05-19T05:15:32.744Z,15.67
2019-05-19T05:18:01.360Z,15.74
2019-05-19T05:20:29.882Z,15.83
2019-05-19T05:22:58.475Z,15.94
2019-05-19T05:25:27.021Z,16.04
2019-05-19T05:27:55.608Z,16.15
2019-05-19T05:30:24.134Z,16.17
2019-05-19T05:32:52.720Z,16.27
2019-05-19T05:35:21.306Z,16.39
2019-05-19T05:37:49.932Z,16.48
2019-05-19T05:40:18.506Z,16.62
2019-05-19T05:42:46.995Z,16.70
2019-05-19T05:45:15.897Z,16.76
2019-05-19T05:47:44.523Z,16.84
2019-05-19T05:50:13.320Z,16.96
2019-05-19T05:52:41.954Z,17.13
2019-05-19T05:55:10.969Z,17.26
2019-05-19T05:57:39.504Z,17.37
2019-05-19T06:00:09.346Z,17.48
2019-05-19T06:02:37.982Z,17.55
2019-05-19T06:05:07.173Z,17.63
2019-05-19T06:07:35.810Z,17.76
2019-05-19T06:10:06.592Z,17.91
2019-05-19T06:12:35.199Z,18.06
2019-05-19T06:15:03.824Z,18.16
2019-05-19T06:17:32.403Z,18.27
2019-05-19T06:20:00.967Z,18.35
2019-05-19T06:22:29.410Z,18.42
2019-05-19T06:24:59.286Z,18.40
2019-05-19T06:27:27.951Z,18.43
2019-05-19T06:29:56.604Z,18.65
2019-05-19T06:32:26.741Z,20.24
2019-05-19T06:34:55.323Z,21.89
2019-05-19T06:37:23.898Z,21.59
2019-05-19T06:39:52.393Z,20.44
2019-05-19T06:42:20.943Z,19.50
2019-05-19T06:44:49.476Z,18.95
2019-05-19T06:47:18.035Z,18.66
2019-05-19T06:49:46.564Z,18.60
2019-05-19T06:52:15.242Z,18.48
2019-05-19T06:54:43.840Z,18.18
2019-05-19T06:57:12.555Z,18.14
2019-05-19T06:59:41.035Z,18.40
2019-05-19T07:02:10.042Z,18.85
2019-05-19T07:04:38.607Z,19.30
2019-05-19T07:07:08.870Z,19.56
2019-05-19T07:09:37.450Z,19.21
2019-05-19T07:12:06.055Z,19.12
2019-05-19T07:14:34.623Z,18.76
2019-05-19T07:17:03.287Z,18.57
2019-05-19T07:19:31.908Z,18.45
2019-05-19T07:22:00.507Z,18.51
2019-05-19T07:24:28.962Z,18.53
2019-05-19T07:26:57.601Z,18.62
2019-05-19T07:29:26.187Z,18.63
2019-05-19T07:31:54.708Z,18.56
2019-05-19T07:34:23.384Z,18.81
2019-05-19T07:36:52.030Z,18.81
2019-05-19T07:39:20.523Z,18.92
2019-05-19T07:41:49.128Z,19.17
2019-05-19T07:44:17.712Z,19.33
2019-05-19T07:46:46.296Z,19.42
2019-05-19T07:49:14.848Z,19.58
2019-05-19T07:51:43.495Z,19.61
2019-05-19T07:54:12.020Z,19.59
2019-05-19T07:56:40.596Z,19.62
2019-05-19T07:59:09.188Z,19.81
2019-05-19T08:01:37.817Z,19.86
2019-05-19T08:04:06.467Z,20.08
2019-05-19T08:06:34.956Z,20.10
2019-05-19T08:09:05.149Z,20.40
2019-05-19T08:11:33.672Z,20.71
2019-05-19T08:14:02.429Z,20.92
2019-05-19T08:16:31.068Z,21.05
2019-05-19T08:18:59.689Z,21.12
2019-05-19T08:21:28.273Z,21.24
2019-05-19T08:24:00.807Z,21.57
2019-05-19T08:26:27.404Z,21.72
2019-05-19T08:28:56.001Z,21.87
2019-05-19T08:31:24.636Z,21.87
2019-05-19T08:33:53.294Z,21.96
2019-05-19T08:36:21.940Z,22.28
2019-05-19T08:38:50.459Z,22.28
2019-05-19T08:41:19.084Z,22.12
2019-05-19T08:43:47.729Z,22.02
2019-05-19T08:46:16.351Z,21.97
2019-05-19T08:48:44.930Z,22.03
2019-05-19T08:51:13.526Z,21.97
2019-05-19T08:53:42.170Z,21.72
2019-05-19T08:56:11.635Z,21.42
2019-05-19T08:58:40.194Z,21.41
2019-05-19T09:01:08.774Z,21.42
2019-05-19T09:03:37.315Z,21.50
2019-05-19T09:06:06.065Z,21.54
2019-05-19T09:08:34.660Z,21.72
2019-05-19T09:11:03.226Z,21.72
2019-05-19T09:13:31.845Z,21.79
2019-05-19T09:16:00.466Z,22.20
2019-05-19T09:18:29.141Z,22.19
2019-05-19T09:20:57.728Z,22.17
2019-05-19T09:23:26.669Z,22.33
2019-05-19T09:25:55.201Z,22.49
2019-05-19T09:28:23.761Z,22.79
2019-05-19T09:30:52.484Z,23.00
2019-05-19T09:33:21.048Z,23.32
2019-05-19T09:35:49.691Z,23.60
2019-05-19T09:38:18.234Z,23.84
2019-05-19T09:40:46.816Z,23.99
2019-05-19T09:43:15.499Z,24.21
2019-05-19T09:45:44.353Z,24.56
2019-05-19T09:48:12.903Z,24.83
2019-05-19T09:50:42.430Z,25.09
2019-05-19T09:53:11.099Z,25.61
2019-05-19T09:55:39.632Z,25.65
2019-05-19T09:58:08.255Z,25.60
2019-05-19T10:00:36.843Z,25.81
2019-05-19T10:03:05.524Z,25.99
2019-05-19T10:05:34.109Z,26.57
2019-05-19T10:08:02.740Z,26.55
2019-05-19T10:10:50.918Z,26.79
2019-05-19T10:13:19.535Z,27.12
2019-05-19T10:15:48.058Z,27.31
2019-05-19T10:18:16.692Z,27.01
2019-05-19T10:20:45.235Z,26.88
2019-05-19T10:23:13.820Z,27.00
2019-05-19T10:25:42.718Z,27.19
2019-05-19T10:28:11.270Z,27.52
2019-05-19T10:30:39.853Z,27.31
2019-05-19T10:33:08.452Z,27.20
2019-05-19T10:35:37.287Z,26.99
2019-05-19T10:38:05.943Z,26.51
2019-05-19T10:40:34.548Z,26.24
2019-05-19T10:43:03.108Z,26.00
2019-05-19T10:45:31.693Z,25.79
2019-05-19T10:48:00.328Z,26.03
2019-05-19T10:50:28.827Z,26.30
2019-05-19T10:52:57.425Z,26.47
2019-05-19T10:55:35.930Z,26.51
2019-05-19T10:57:56.347Z,26.89
2019-05-19T11:00:25.461Z,27.11
2019-05-19T11:02:54.040Z,27.47
2019-05-19T11:05:22.672Z,27.40
2019-05-19T11:07:51.267Z,27.57
2019-05-19T11:10:19.975Z,27.61
2019-05-19T11:12:48.555Z,27.26
2019-05-19T11:15:17.449Z,26.98
2019-05-19T11:17:45.979Z,27.22
2019-05-19T11:20:14.609Z,27.42
2019-05-19T11:22:43.243Z,27.64
2019-05-19T11:25:11.795Z,27.86
2019-05-19T11:27:40.404Z,28.01
2019-05-19T11:30:09.089Z,28.21
2019-05-19T11:32:37.649Z,28.44
2019-05-19T11:35:07.333Z,28.58
2019-05-19T11:37:35.848Z,28.25
2019-05-19T11:40:04.588Z,27.83
2019-05-19T11:42:33.213Z,27.67
2019-05-19T11:45:01.850Z,27.72
2019-05-19T11:47:30.389Z,27.83
2019-05-19T11:49:59.130Z,27.88
2019-05-19T11:52:27.729Z,27.77
2019-05-19T11:54:56.378Z,27.98
2019-05-19T11:57:25.005Z,28.09
2019-05-19T11:59:53.673Z,28.10
2019-05-19T12:02:22.374Z,28.02
2019-05-19T12:04:50.934Z,28.04
2019-05-19T12:07:19.488Z,27.98
2019-05-19T12:09:48.123Z,27.86
2019-05-19T12:12:16.731Z,27.84
2019-05-19T12:14:45.411Z,27.76
2019-05-19T12:17:14.274Z,27.76
2019-05-19T12:19:42.786Z,27.62
2019-05-19T12:22:11.289Z,27.25
2019-05-19T12:24:39.919Z,27.15
2019-05-19T12:27:09.723Z,26.96
2019-05-19T12:29:38.345Z,26.94
2019-05-19T12:32:06.925Z,27.03
2019-05-19T12:34:35.540Z,26.65
2019-05-19T12:37:04.150Z,26.88
2019-05-19T12:39:32.868Z,27.24
2019-05-19T12:42:01.446Z,27.37
2019-05-19T12:44:30.059Z,27.64
2019-05-19T12:46:58.666Z,27.70
2019-05-19T12:49:27.271Z,27.83
2019-05-19T12:51:55.890Z,27.74
2019-05-19T12:54:24.494Z,27.52
2019-05-19T12:56:52.983Z,27.47
2019-05-19T12:59:21.528Z,27.63
2019-05-19T13:01:50.113Z,27.49
2019-05-19T13:04:18.665Z,27.29
2019-05-19T13:06:47.259Z,27.33
2019-05-19T13:09:15.804Z,27.35
2019-05-19T13:11:44.691Z,27.27
2019-05-19T13:14:13.317Z,26.73
2019-05-19T13:16:41.851Z,26.48
2019-05-19T13:19:10.412Z,26.50
2019-05-19T13:21:39.177Z,26.57
2019-05-19T13:24:07.788Z,26.80
2019-05-19T13:26:36.306Z,26.76
2019-05-19T13:29:04.836Z,26.87
2019-05-19T13:31:33.499Z,27.07
2019-05-19T13:34:02.098Z,27.34
2019-05-19T13:36:30.634Z,27.40
2019-05-19T13:38:59.135Z,27.39
2019-05-19T13:41:27.672Z,27.24
2019-05-19T13:43:59.550Z,27.20
2019-05-19T13:46:26.720Z,27.21
2019-05-19T13:48:55.219Z,27.29
2019-05-19T13:51:23.818Z,27.36
2019-05-19T13:53:52.489Z,27.21
2019-05-19T13:56:21.188Z,26.95
2019-05-19T13:58:49.743Z,26.79
2019-05-19T14:01:28.261Z,26.85
2019-05-19T14:03:51.865Z,27.04
2019-05-19T14:06:19.032Z,27.10
2019-05-19T14:08:47.763Z,27.20
2019-05-19T14:11:16.381Z,26.97
2019-05-19T14:13:45.596Z,26.70
2019-05-19T14:16:14.220Z,26.52
2019-05-19T14:18:42.843Z,26.57
2019-05-19T14:21:11.441Z,26.32
2019-05-19T14:23:39.973Z,26.21
2019-05-19T14:26:08.618Z,25.88
2019-05-19T14:28:37.239Z,25.43
2019-05-19T14:31:05.842Z,24.80
2019-05-19T14:33:34.431Z,23.98
2019-05-19T14:36:03.138Z,23.67
2019-05-19T14:38:31.640Z,23.17
2019-05-19T14:41:00.208Z,23.00
2019-05-19T14:43:33.324Z,22.86
2019-05-19T14:46:01.953Z,22.91
2019-05-19T14:48:30.477Z,23.19
2019-05-19T14:50:59.072Z,23.55
2019-05-19T14:53:27.867Z,23.67
2019-05-19T14:55:56.433Z,23.92
2019-05-19T14:58:25.043Z,24.01
2019-05-19T15:00:53.663Z,24.10
2019-05-19T15:03:22.225Z,24.10
2019-05-19T15:05:50.871Z,24.05
2019-05-19T15:08:19.432Z,23.76
2019-05-19T15:10:47.917Z,23.94
2019-05-19T15:13:16.621Z,23.79
2019-05-19T15:15:46.229Z,23.75
2019-05-19T15:18:14.854Z,23.55
2019-05-19T15:20:43.458Z,23.37
2019-05-19T15:23:11.959Z,23.26
2019-05-19T15:25:40.499Z,23.22
2019-05-19T15:28:09.165Z,23.17
2019-05-19T15:30:37.762Z,23.09
2019-05-19T15:33:06.329Z,22.94
2019-05-19T15:35:34.881Z,22.95
2019-05-19T15:38:03.538Z,22.99
2019-05-19T15:40:32.060Z,23.04
2019-05-19T15:43:00.580Z,22.98
2019-05-19T15:45:29.167Z,22.77
2019-05-19T15:47:57.767Z,22.58
2019-05-19T15:50:26.363Z,22.60
2019-05-19T15:52:55.027Z,22.64
2019-05-19T15:55:23.598Z,22.73
2019-05-19T15:57:52.132Z,22.71
2019-05-19T16:00:22.187Z,22.69
2019-05-19T16:02:50.813Z,22.92
2019-05-19T16:05:19.391Z,22.93
2019-05-19T16:07:48.021Z,22.93
2019-05-19T16:10:16.897Z,22.79
2019-05-19T16:12:45.582Z,22.79
2019-05-19T16:15:15.095Z,22.79
2019-05-19T16:17:43.611Z,22.80
2019-05-19T16:20:12.726Z,22.64
2019-05-19T16:22:41.402Z,22.67
2019-05-19T16:25:10.312Z,22.88
2019-05-19T16:27:39.216Z,23.00
2019-05-19T16:30:09.773Z,23.17
2019-05-19T16:32:38.382Z,23.00
2019-05-19T16:35:07.781Z,22.97
2019-05-19T16:37:36.406Z,23.16
2019-05-19T16:40:06.152Z,23.31
2019-05-19T16:42:34.787Z,23.52
2019-05-19T16:45:03.800Z,23.62
2019-05-19T16:47:32.352Z,22.97
2019-05-19T16:50:00.868Z,22.97
2019-05-19T16:52:29.415Z,22.94
2019-05-19T16:55:16.023Z,23.25
2019-05-19T16:57:44.702Z,23.41
2019-05-19T17:00:13.876Z,23.16
2019-05-19T17:02:42.508Z,23.01
2019-05-19T17:05:11.225Z,22.73
2019-05-19T17:07:39.723Z,22.66
2019-05-19T17:10:09.480Z,22.43
2019-05-19T17:12:38.081Z,22.27
2019-05-19T17:15:07.112Z,22.03
2019-05-19T17:17:35.651Z,21.83
2019-05-19T17:20:06.526Z,21.65
2019-05-19T17:22:35.165Z,21.65
2019-05-19T17:25:05.063Z,21.70
2019-05-19T17:27:33.655Z,21.88
2019-05-19T17:30:02.246Z,21.80
2019-05-19T17:32:30.789Z,21.50
2019-05-19T17:34:59.344Z,21.45
2019-05-19T17:37:27.916Z,21.49
2019-05-19T17:39:56.555Z,21.50
2019-05-19T17:42:25.172Z,21.20
2019-05-19T17:44:53.773Z,20.98
2019-05-19T17:47:22.325Z,20.58
2019-05-19T17:49:50.939Z,20.52
2019-05-19T17:52:19.626Z,20.39
2019-05-19T17:54:48.218Z,20.13
2019-05-19T17:57:16.896Z,20.02
2019-05-19T17:59:48.591Z,19.87
2019-05-19T18:02:18.037Z,19.89
2019-05-19T18:04:46.598Z,19.73
2019-05-19T18:07:15.601Z,19.48
2019-05-19T18:09:44.066Z,19.16
2019-05-19T18:12:12.607Z,18.96
2019-05-19T18:14:41.193Z,18.71
2019-05-19T18:17:09.707Z,18.48
2019-05-19T18:19:38.417Z,18.62
2019-05-19T18:22:07.009Z,18.51
2019-05-19T18:24:35.561Z,18.27
2019-05-19T18:27:04.421Z,18.09
2019-05-19T18:29:32.976Z,18.18
2019-05-19T18:32:01.522Z,17.98
2019-05-19T18:34:30.046Z,18.02
2019-05-19T18:36:58.623Z,17.97
2019-05-19T18:39:27.303Z,17.94
2019-05-19T18:41:55.942Z,17.89
2019-05-19T18:44:24.564Z,17.76
2019-05-19T18:46:53.196Z,17.65
2019-05-19T18:49:21.681Z,17.52
2019-05-19T18:51:50.302Z,17.55
2019-05-19T18:54:18.902Z,17.42
2019-05-19T18:56:47.539Z,17.38
2019-05-19T18:59:16.852Z,17.24
2019-05-19T19:01:45.603Z,17.36
2019-05-19T19:04:14.179Z,17.25
2019-05-19T19:06:43.003Z,17.23
2019-05-19T19:09:11.684Z,17.22
2019-05-19T19:11:40.311Z,17.03
2019-05-19T19:14:08.866Z,16.97
2019-05-19T19:16:37.514Z,17.11
2019-05-19T19:19:06.154Z,17.39
2019-05-19T19:21:34.803Z,17.68
2019-05-19T19:24:03.415Z,17.82
2019-05-19T19:26:31.991Z,17.78
2019-05-19T19:29:00.606Z,17.78
2019-05-19T19:31:29.199Z,17.79
2019-05-19T19:33:57.813Z,17.63
2019-05-19T19:36:26.341Z,17.53
2019-05-19T19:38:54.972Z,17.54
2019-05-19T19:41:23.568Z,17.42
2019-05-19T19:43:52.175Z,17.25
2019-05-19T19:46:20.730Z,17.14
2019-05-19T19:48:50.106Z,17.22
2019-05-19T19:51:18.658Z,17.01
2019-05-19T19:53:47.402Z,17.01
2019-05-19T19:56:15.919Z,17.09
2019-05-19T19:58:44.489Z,17.26
2019-05-19T20:01:13.053Z,17.29
2019-05-19T20:03:41.643Z,17.09
2019-05-19T20:06:10.186Z,16.91
2019-05-19T20:08:38.791Z,16.99
2019-05-19T20:11:07.731Z,17.00
2019-05-19T20:13:36.238Z,17.09
2019-05-19T20:16:04.849Z,17.14
2019-05-19T20:18:33.402Z,17.05
2019-05-19T20:21:02.037Z,17.12
2019-05-19T20:23:30.502Z,17.13
2019-05-19T20:25:59.122Z,17.16
2019-05-19T20:28:27.831Z,17.05
2019-05-19T20:30:56.433Z,16.99
2019-05-19T20:33:24.998Z,16.90
2019-05-19T20:35:53.542Z,16.64
2019-05-19T20:38:22.138Z,16.63
2019-05-19T20:40:50.892Z,16.61
2019-05-19T20:43:19.525Z,16.63
2019-05-19T20:45:48.078Z,16.48
2019-05-19T20:48:16.700Z,16.46
2019-05-19T20:50:45.240Z,16.47
2019-05-19T20:53:13.829Z,16.59
2019-05-19T20:55:42.490Z,16.66
2019-05-19T20:58:11.080Z,16.83
2019-05-19T21:00:50.135Z,16.80
2019-05-19T21:03:09.858Z,16.56
2019-05-19T21:05:38.381Z,16.39
2019-05-19T21:08:06.919Z,16.26
2019-05-19T21:10:35.424Z,16.06
2019-05-19T21:13:03.965Z,15.72
2019-05-19T21:15:32.482Z,15.61
2019-05-19T21:18:01.016Z,15.66
2019-05-19T21:20:29.625Z,15.63
2019-05-19T21:22:58.249Z,15.67
2019-05-19T21:25:26.835Z,15.44
2019-05-19T21:27:55.443Z,15.32
2019-05-19T21:30:24.155Z,15.21
2019-05-19T21:32:52.741Z,14.93
2019-05-19T21:35:21.754Z,14.84
2019-05-19T21:37:50.322Z,14.76
2019-05-19T21:40:18.874Z,14.78
2019-05-19T21:42:47.266Z,14.64
2019-05-19T21:45:15.989Z,14.50
2019-05-19T21:47:44.509Z,14.48
2019-05-19T21:50:13.324Z,14.68
2019-05-19T21:52:41.844Z,14.90
2019-05-19T21:55:10.559Z,15.02
2019-05-19T21:57:39.142Z,14.90
2019-05-19T22:00:11.985Z,14.67
2019-05-19T22:02:40.451Z,14.46
2019-05-19T22:05:09.072Z,14.38
2019-05-19T22:07:55.673Z,14.26
2019-05-19T22:10:33.281Z,14.26
2019-05-19T22:13:01.833Z,14.43
2019-05-19T22:15:30.401Z,14.71
2019-05-19T22:17:59.027Z,14.66
2019-05-19T22:20:27.685Z,14.39
2019-05-19T22:22:56.215Z,14.11
2019-05-19T22:25:24.825Z,13.87
2019-05-19T22:27:53.532Z,13.58
2019-05-19T22:30:22.795Z,13.61
2019-05-19T22:32:52.445Z,13.98
2019-05-19T22:35:21.035Z,14.05
2019-05-19T22:37:49.653Z,13.82
2019-05-19T22:40:18.836Z,13.73
2019-05-19T22:42:47.386Z,13.59
2019-05-19T22:45:15.961Z,13.42
2019-05-19T22:47:44.491Z,13.39
2019-05-19T22:50:13.380Z,13.46
2019-05-19T22:52:41.931Z,13.35
2019-05-19T22:55:10.539Z,13.28
2019-05-19T22:57:39.061Z,13.39
2019-05-19T23:00:10.180Z,13.57
2019-05-19T23:02:38.802Z,13.68
2019-05-19T23:05:07.872Z,13.62
2019-05-19T23:07:36.627Z,13.75
2019-05-19T23:10:08.667Z,13.66
2019-05-19T23:12:37.149Z,13.72
2019-05-19T23:15:09.502Z,13.68
2019-05-19T23:17:38.028Z,13.30
2019-05-19T23:20:06.703Z,13.33
2019-05-19T23:22:35.413Z,13.22
2019-05-19T23:25:05.240Z,13.17
2019-05-19T23:27:33.834Z,12.94
2019-05-19T23:30:02.395Z,12.87
2019-05-19T23:32:30.895Z,12.85
2019-05-19T23:34:59.481Z,12.83
2019-05-19T23:37:27.956Z,12.67
2019-05-19T23:39:56.581Z,12.74
2019-05-19T23:42:25.170Z,12.93
2019-05-19T23:44:53.789Z,13.12
2019-05-19T23:47:23.321Z,13.09
2019-05-19T23:49:51.840Z,13.15
2019-05-19T23:52:20.412Z,13.24
2019-05-19T23:54:48.951Z,13.11
2019-05-19T23:57:17.420Z,13.10
2019-05-19T23:59:46.005Z,13.11
